Latest Weather Observations for Woolshed

IDQ60801

Issued at 12:32 pm EST Monday 23 October 2017 (issued every 30 minutes, with the page automatically refreshed every 10 minutes)

About weather observations | Map of weather stations | Latest weather observations for QLD | Other Formats
Station Details ID: 033307 Name: WOOLSHED Lat: -19.42 Lon: 146.54 Height: 556.04 m
Data from the previous 72 hours. | See also: Recent months at Woolshed
Date/Time
EST
Temp
°C
App
Temp
°C
Dew
Point
°C
Rel
Hum
%
Delta-T
°C
Wind Press
QNH
hPa
Press
MSL
hPa
Rain since
9am
mm
Dir  Spd
km/h
Gust
km/h
Spd
kts
Gust
kts
23/12:30pm 26.9 28.2 19.3 63 5.0 NNE 11 20 6 11 1015.1 1012.1 0.0
23/12:00pm 25.8 26.6 16.4 56 5.9 NNE 7 15 4 8 1015.5 1012.5 0.0
23/11:30am 25.2 25.6 15.2 54 6.2 ENE 7 15 4 8 1015.8 1012.8 0.0
23/11:00am 26.5 27.8 17.6 58 5.7 NE 7 17 4 9 1016.0 1013.0 0.0
23/10:30am 25.5 26.5 16.9 59 5.4 NNE 7 15 4 8 1016.4 1013.4 0.0
23/10:00am 24.5 25.8 17.5 65 4.5 NE 7 17 4 9 1016.6 1013.6 0.0
23/09:30am 24.2 26.0 18.2 69 3.9 NE 6 11 3 6 1016.7 1013.7 0.0
23/09:00am 23.2 24.3 18.1 73 3.3 NE 9 15 5 8 1016.8 1013.8 1.4
23/08:30am 21.7 23.8 19.3 86 1.6 NNE 7 11 4 6 1016.5 1013.5 1.4
23/08:00am 20.9 23.1 19.2 90 1.1 NNE 6 11 3 6 1016.0 1013.0 1.4
23/07:30am 20.2 22.9 19.5 96 0.5 NE 4 7 2 4 1015.6 1012.6 1.4
23/07:00am 19.6 21.8 19.3 98 0.2 NE 6 9 3 5 1015.1 1012.1 1.4
23/06:30am 19.3 22.6 19.1 99 0.1 CALM 0 6 0 3 1014.7 1011.7 1.4
23/06:00am 19.4 21.6 19.2 99 0.1 NNE 6 11 3 6 1014.5 1011.4 1.4
23/05:30am 19.3 21.8 19.1 99 0.1 N 4 9 2 5 1014.2 1011.2 1.4
23/05:00am 19.3 21.8 19.1 99 0.1 NNE 4 9 2 5 1014.1 1011.1 1.4
23/04:30am 19.3 22.2 19.1 99 0.1 NNE 2 7 1 4 1014.0 1011.0 1.4
23/04:00am 19.3 21.8 19.1 99 0.1 NNE 4 9 2 5 1013.8 1010.8 1.4
23/03:30am 19.4 22.0 19.2 99 0.1 NNE 4 9 2 5 1013.6 1010.6 1.4
23/03:00am 19.4 22.4 19.2 99 0.1 NNE 2 6 1 3 1013.7 1010.7 1.4
23/02:30am 19.4 22.3 19.1 98 0.2 NE 2 4 1 2 1013.8 1010.8 1.4
23/02:00am 19.5 22.5 19.2 98 0.2 NE 2 6 1 3 1014.0 1011.0 1.4
23/01:30am 19.6 22.2 19.3 98 0.2 NE 4 7 2 4 1014.4 1011.3 1.4
23/01:00am 19.5 22.4 19.0 97 0.3 ENE 2 6 1 3 1014.5 1011.4 1.4
23/12:30am 19.6 22.9 19.1 97 0.3 CALM 0 0 0 0 1014.6 1011.6 1.4
23/12:00am 19.3 22.5 18.8 97 0.3 CALM 0 0 0 0 1014.8 1011.8 1.4
 
Date/Time
EST
Temp
°C
App
Temp
°C
Dew
Point
°C
Rel
Hum
%
Delta-T
°C
Wind Press
QNH
hPa
Press
MSL
hPa
Rain since
9am
mm
Dir  Spd
km/h
Gust
km/h
Spd
kts
Gust
kts
22/11:30pm 19.2 22.3 18.7 97 0.3 CALM 0 0 0 0 1014.9 1011.9 1.4
22/11:00pm 19.1 22.1 18.4 96 0.4 CALM 0 0 0 0 1014.9 1011.9 1.4
22/10:30pm 19.3 21.6 18.6 96 0.4 NE 4 9 2 5 1015.1 1012.1 1.4
22/10:00pm 19.4 21.8 18.9 97 0.3 NNE 4 9 2 5 1015.0 1012.0 1.4
22/09:30pm 19.6 21.8 19.1 97 0.3 NNE 6 11 3 6 1014.8 1011.8 1.4
22/09:00pm 19.4 21.5 18.9 97 0.3 NNE 6 15 3 8 1014.5 1011.4 1.4
22/08:30pm 19.4 21.8 18.9 97 0.3 NNE 4 9 2 5 1014.1 1011.1 1.4
22/08:00pm 19.4 21.4 18.7 96 0.4 NNE 6 13 3 7 1013.7 1010.7 1.4
22/07:30pm 19.4 21.2 18.4 94 0.6 NNE 6 11 3 6 1013.4 1010.4 1.4
22/07:00pm 19.6 21.3 18.1 91 0.9 NNE 6 9 3 5 1013.1 1010.1 1.4
22/06:30pm 20.2 22.0 18.3 89 1.2 NNE 6 13 3 7 1012.9 1009.8 1.4
22/06:00pm 21.2 23.0 18.8 86 1.5 NNE 7 11 4 6 1012.5 1009.4 1.4
22/05:30pm 22.5 24.1 18.3 77 2.7 NNE 7 15 4 8 1012.0 1009.0 1.4
22/05:00pm 23.1 24.7 18.2 74 3.1 NNE 7 13 4 7 1011.9 1008.9 1.4
22/04:30pm 22.4 24.1 18.4 78 2.6 NNE 7 15 4 8 1011.8 1008.8 1.4
22/04:00pm 23.3 25.0 18.4 74 3.2 NNE 7 13 4 7 1011.8 1008.8 1.4
22/03:30pm 23.4 25.3 18.9 76 2.9 NNE 7 11 4 6 1012.1 1009.1 1.4
22/03:00pm 23.7 25.7 19.2 76 2.9 NNE 7 15 4 8 1012.1 1009.1 1.4
22/02:30pm 23.1 25.1 19.1 78 2.6 NNE 7 13 4 7 1012.5 1009.4 1.4
22/02:00pm 22.9 25.2 19.5 81 2.2 N 6 9 3 5 1012.8 1009.7 1.4
22/01:30pm 22.8 23.8 16.8 69 3.8 NE 7 11 4 6 1013.2 1010.2 0.8
22/01:00pm 23.1 24.3 16.9 68 3.9 NE 6 11 3 6 1013.4 1010.4 0.8
22/12:30pm 23.2 25.2 17.0 68 3.9 SSE 2 7 1 4 1013.7 1010.7 0.8
22/12:00pm 21.6 24.5 18.2 81 2.2 CALM 0 0 0 0 1014.1 1011.1 0.8
22/11:30am 21.7 24.6 18.3 81 2.2 CALM 0 0 0 0 1014.7 1011.7 0.6
22/11:00am 22.9 24.8 17.6 72 3.4 ENE 4 13 2 7 1014.8 1011.8 0.0
22/10:30am 23.3 25.0 17.1 68 3.9 E 4 9 2 5 1014.8 1011.8 0.0
22/10:00am 22.4 23.7 17.1 72 3.3 SE 6 9 3 5 1015.0 1012.0 0.0
22/09:30am 22.6 24.3 17.1 71 3.5 SE 4 9 2 5 1015.4 1012.4 0.0
22/09:00am 21.7 23.3 16.9 74 3.0 SE 4 7 2 4 1015.4 1012.4 8.8
22/08:30am 21.1 23.1 16.9 77 2.6 E 2 9 1 5 1015.3 1012.3 8.8
22/08:00am 20.1 22.8 17.7 86 1.5 CALM 0 0 0 0 1015.1 1012.1 8.8
22/07:30am 19.5 21.8 17.6 89 1.2 SSW 2 6 1 3 1014.8 1011.8 8.8
22/07:00am 18.9 21.8 18.2 96 0.4 CALM 0 0 0 0 1014.4 1011.3 8.8
22/06:30am 18.5 21.4 18.2 98 0.2 CALM 0 0 0 0 1014.0 1011.0 8.8
22/06:00am 18.4 21.2 17.9 97 0.3 CALM 0 4 0 2 1013.7 1010.7 8.8
22/05:30am 18.5 21.4 18.2 98 0.2 CALM 0 0 0 0 1013.8 1010.8 8.8
22/05:00am 18.4 21.2 17.9 97 0.3 CALM 0 0 0 0 1013.6 1010.6 8.8
22/04:30am 18.3 21.0 17.7 96 0.4 CALM 0 0 0 0 1013.3 1010.3 8.8
22/04:00am 18.3 21.0 17.7 96 0.4 CALM 0 0 0 0 1013.2 1010.2 8.8
22/03:30am 18.4 21.1 17.8 96 0.4 CALM 0 0 0 0 1013.2 1010.2 8.6
22/03:00am 18.5 20.6 18.0 97 0.3 SSE 4 6 2 3 1013.2 1010.2 8.6
22/02:30am 18.5 20.1 17.9 96 0.4 S 6 9 3 5 1013.5 1010.5 8.2
22/02:00am 18.7 21.5 17.9 95 0.5 CALM 0 2 0 1 1013.8 1010.8 6.6
22/01:30am 18.7 21.1 17.9 95 0.5 SSE 2 6 1 3 1013.9 1010.9 6.6
22/01:00am 18.9 21.0 18.1 95 0.5 SSE 4 7 2 4 1014.2 1011.2 6.4
22/12:30am 18.9 21.4 18.1 95 0.5 SSE 2 7 1 4 1014.7 1011.7 6.4
22/12:00am 18.8 21.3 18.1 96 0.4 SSE 2 6 1 3 1014.8 1011.8 6.4
 
Date/Time
EST
Temp
°C
App
Temp
°C
Dew
Point
°C
Rel
Hum
%
Delta-T
°C
Wind Press
QNH
hPa
Press
MSL
hPa
Rain since
9am
mm
Dir  Spd
km/h
Gust
km/h
Spd
kts
Gust
kts
21/11:30pm 18.9 21.4 18.2 96 0.4 SE 2 6 1 3 1015.1 1012.1 6.4
21/11:00pm 19.0 21.2 18.3 96 0.4 SE 4 9 2 5 1015.5 1012.5 6.4
21/10:30pm 18.9 21.4 18.2 96 0.4 SE 2 6 1 3 1015.8 1012.8 6.4
21/10:00pm 19.0 21.2 18.3 96 0.4 SE 4 11 2 6 1015.6 1012.6 6.4
21/09:30pm 19.2 21.2 18.7 97 0.3 SE 6 13 3 7 1015.6 1012.6 6.4
21/09:00pm 19.3 21.7 18.8 97 0.3 SE 4 7 2 4 1015.4 1012.4 6.4
21/08:30pm 19.5 22.0 19.0 97 0.3 SSE 4 7 2 4 1015.4 1012.4 6.2
21/08:00pm 19.4 21.8 18.7 96 0.4 SSE 4 7 2 4 1015.2 1012.2 6.2
21/07:30pm 19.6 22.5 19.1 97 0.3 SE 2 9 1 5 1015.2 1012.2 5.8
21/07:00pm 19.8 23.1 19.1 96 0.5 CALM 0 0 0 0 1014.8 1011.8 4.4
21/06:30pm 20.1 23.4 19.1 94 0.6 CALM 0 0 0 0 1014.4 1011.3 2.2
21/06:00pm 20.3 23.7 19.3 94 0.6 CALM 0 0 0 0 1014.1 1011.1 1.0
21/05:30pm 20.4 23.7 19.1 92 0.8 CALM 0 0 0 0 1013.9 1010.9 1.0
21/05:00pm - - - - - CALM 0 0 0 0 1013.8 1010.8 0.6
21/04:30pm 20.8 23.3 19.1 90 1.1 NNE 4 6 2 3 1013.7 1010.7 0.2
21/04:00pm 21.4 23.9 19.0 86 1.5 NNE 4 7 2 4 1013.7 1010.7 0.0
21/03:30pm 22.2 25.1 18.2 78 2.6 CALM 0 6 0 3 1013.7 1010.7 0.0
21/03:00pm 22.2 24.8 18.4 79 2.4 SE 2 6 1 3 1013.9 1010.9 0.0
21/02:30pm 22.2 25.3 18.6 80 2.3 CALM 0 6 0 3 1014.0 1011.0 0.0
21/02:00pm 22.6 24.1 17.7 74 3.1 SSE 6 9 3 5 1014.5 1011.4 0.0
21/01:30pm - - - - - ENE 6 9 3 5 1014.7 1011.7 0.0
21/01:00pm 24.4 25.6 17.4 65 4.5 NNE 7 11 4 6 1015.1 1012.1 0.0
21/12:30pm 24.8 26.1 17.5 64 4.7 NNE 7 13 4 7 1015.6 1012.6 0.0
21/12:00pm 24.6 25.9 17.6 65 4.5 NNE 7 15 4 8 1016.1 1013.2 0.0
21/11:30am 24.4 25.9 18.1 68 4.0 NNE 7 17 4 9 1016.5 1013.5 0.0
21/11:00am 22.7 23.9 16.9 70 3.6 NNE 6 11 3 6 1017.0 1014.0 0.0
21/10:30am 23.1 25.2 18.0 73 3.3 NNE 4 7 2 4 1017.3 1014.3 0.0
21/10:00am 22.6 23.4 17.3 72 3.3 NE 9 19 5 10 1017.2 1014.2 0.0
21/09:30am 22.5 23.3 16.3 68 3.9 NNE 7 15 4 8 1017.5 1014.5 0.0
21/09:00am 22.0 22.9 17.6 76 2.8 NE 9 15 5 8 1017.5 1014.5 0.0
21/08:30am 21.6 22.6 17.8 79 2.4 NNE 9 15 5 8 1017.4 1014.4 0.0
21/08:00am 21.7 23.0 17.5 77 2.6 NNE 7 13 4 7 1017.2 1014.2 0.0
21/07:30am 21.1 22.4 17.5 80 2.3 ENE 7 13 4 7 1017.1 1014.1 0.0
21/07:00am 19.9 21.6 18.0 89 1.2 NE 6 9 3 5 1017.0 1014.0 0.0
21/06:30am 19.3 21.7 18.0 92 0.8 ENE 2 6 1 3 1016.7 1013.7 0.0
21/06:00am 18.4 21.0 17.4 94 0.6 CALM 0 0 0 0 1016.5 1013.5 0.0
21/05:30am 18.5 20.2 17.2 92 0.8 NE 4 7 2 4 1016.1 1013.2 0.0
21/05:00am 18.7 20.2 17.7 94 0.6 ENE 6 11 3 6 1015.8 1012.8 0.0
21/04:30am 18.9 20.4 18.1 95 0.5 ENE 7 11 4 6 1015.5 1012.5 0.0
21/04:00am 19.0 20.6 18.3 96 0.4 NE 7 13 4 7 1015.7 1012.7 0.0
21/03:30am 19.0 20.6 18.3 96 0.4 NE 7 19 4 10 1015.9 1012.9 0.0
21/03:00am 18.9 20.5 18.2 96 0.4 NE 7 11 4 6 1016.0 1013.0 0.0
21/02:30am 18.9 20.7 18.2 96 0.4 NE 6 13 3 7 1016.3 1013.3 0.0
21/02:00am 19.2 21.6 18.7 97 0.3 NE 4 7 2 4 1016.5 1013.5 0.0
21/01:30am 19.1 20.9 18.4 96 0.4 NE 6 13 3 7 1016.9 1013.9 0.0
21/01:00am 19.2 20.8 18.2 94 0.6 NE 7 13 4 7 1017.2 1014.2 0.0
21/12:30am 19.4 21.2 18.4 94 0.6 NE 6 11 3 6 1017.8 1014.9 0.0
21/12:00am 19.6 20.9 18.4 93 0.8 NE 9 15 5 8 1018.3 1015.3 0.0
 
Date/Time
EST
Temp
°C
App
Temp
°C
Dew
Point
°C
Rel
Hum
%
Delta-T
°C
Wind Press
QNH
hPa
Press
MSL
hPa
Rain since
9am
mm
Dir  Spd
km/h
Gust
km/h
Spd
kts
Gust
kts
20/11:30pm 19.6 21.4 18.8 95 0.5 NE 7 17 4 9 1018.4 1015.4 0.0
20/11:00pm 19.6 21.1 18.8 95 0.5 NE 9 19 5 10 1018.6 1015.6 0.0
20/10:30pm 19.7 21.1 18.7 94 0.6 NE 9 19 5 10 1018.8 1015.8 0.0
20/10:00pm 19.8 21.3 19.0 95 0.5 NNE 9 17 5 9 1018.8 1015.8 0.0
20/09:30pm 19.8 21.7 19.0 95 0.5 NE 7 13 4 7 1018.7 1015.7 0.0
20/09:00pm 19.9 21.9 19.1 95 0.5 NE 7 17 4 9 1018.5 1015.5 0.0
20/08:30pm 19.9 21.4 18.9 94 0.6 NNE 9 19 5 10 1018.3 1015.3 0.0
20/08:00pm 20.0 21.8 18.7 92 0.8 NNE 7 19 4 10 1018.0 1015.1 0.0
20/07:30pm 20.1 21.7 18.2 89 1.2 NNE 7 17 4 9 1017.9 1015.0 0.0
20/07:00pm 20.5 22.0 18.1 86 1.5 NNE 7 13 4 7 1017.9 1015.0 0.0
20/06:30pm 20.7 21.8 17.9 84 1.8 NNE 9 17 5 9 1017.6 1014.6 0.0
20/06:00pm 21.1 22.2 18.1 83 1.9 NNE 9 17 5 9 1017.4 1014.4 0.0
20/05:30pm 21.6 22.7 18.0 80 2.3 NNE 9 19 5 10 1017.2 1014.2 0.0
20/05:00pm 22.0 23.1 18.0 78 2.5 NNE 9 17 5 9 1017.3 1014.3 0.0
20/04:30pm 23.5 24.7 18.2 72 3.4 NNE 9 17 5 9 1017.2 1014.2 0.0
20/04:00pm 23.2 24.0 18.1 73 3.3 NNE 11 19 6 10 1017.1 1014.1 0.0
20/03:30pm 23.5 24.3 18.2 72 3.4 NNE 11 20 6 11 1017.1 1014.1 0.0
20/03:00pm 23.2 24.6 17.9 72 3.4 NNE 7 15 4 8 1017.4 1014.4 0.0
20/02:30pm 24.0 25.9 18.9 73 3.3 NE 7 15 4 8 1017.5 1014.5 0.0
20/02:00pm 23.8 25.8 19.1 75 3.1 ENE 7 13 4 7 1018.0 1015.1 0.0
20/01:30pm 24.0 25.4 18.6 72 3.5 NE 9 15 5 8 1018.3 1015.3 0.0
20/01:00pm 24.0 25.7 18.6 72 3.5 NE 7 17 4 9 1018.7 1015.7 0.0

Other Formats:

Comma delimited format used in spreadsheet applications
http://www.bom.gov.au/fwo/IDQ60801/IDQ60801.95293.axf

JavaScript Object Notation format (JSON) in row-major order
http://www.bom.gov.au/fwo/IDQ60801/IDQ60801.95293.json